sensor_id;sensor_type;location;lat;lon;timestamp;P1;P2;P0
67892;PMS7003;54688;52.376;16.744;2023-05-10T00:00:07;15;14;
67892;PMS7003;54688;52.376;16.744;2023-05-10T00:03:42;16;13;
67892;PMS7003;54688;52.376;16.744;2023-05-10T00:06:44;15;12;
67892;PMS7003;54688;52.376;16.744;2023-05-10T00:09:46;16;15;
67892;PMS7003;54688;52.376;16.744;2023-05-10T00:12:48;14;14;
67892;PMS7003;54688;52.376;16.744;2023-05-10T00:15:50;17;15;
67892;PMS7003;54688;52.376;16.744;2023-05-10T00:18:52;17;16;
67892;PMS7003;54688;52.376;16.744;2023-05-10T00:21:54;13;13;
67892;PMS7003;54688;52.376;16.744;2023-05-10T00:24:57;18;15;
67892;PMS7003;54688;52.376;16.744;2023-05-10T00:27:59;17;17;
67892;PMS7003;54688;52.376;16.744;2023-05-10T00:31:01;20;18;
67892;PMS7003;54688;52.376;16.744;2023-05-10T00:34:03;18;18;
67892;PMS7003;54688;52.376;16.744;2023-05-10T00:37:05;24;17;
67892;PMS7003;54688;52.376;16.744;2023-05-10T00:40:08;18;15;
67892;PMS7003;54688;52.376;16.744;2023-05-10T00:43:10;21;18;
67892;PMS7003;54688;52.376;16.744;2023-05-10T00:46:13;17;13;
67892;PMS7003;54688;52.376;16.744;2023-05-10T00:49:16;21;16;
67892;PMS7003;54688;52.376;16.744;2023-05-10T00:52:18;20;15;
67892;PMS7003;54688;52.376;16.744;2023-05-10T00:55:21;19;12;
67892;PMS7003;54688;52.376;16.744;2023-05-10T00:58:23;26;19;
67892;PMS7003;54688;52.376;16.744;2023-05-10T01:01:24;21;18;
67892;PMS7003;54688;52.376;16.744;2023-05-10T01:04:27;18;14;
67892;PMS7003;54688;52.376;16.744;2023-05-10T01:07:29;24;18;
67892;PMS7003;54688;52.376;16.744;2023-05-10T01:10:31;21;15;
67892;PMS7003;54688;52.376;16.744;2023-05-10T01:13:35;16;13;
67892;PMS7003;54688;52.376;16.744;2023-05-10T01:16:39;19;16;
67892;PMS7003;54688;52.376;16.744;2023-05-10T01:19:42;11;11;
67892;PMS7003;54688;52.376;16.744;2023-05-10T01:25:11;18;13;
67892;PMS7003;54688;52.376;16.744;2023-05-10T01:28:28;19;16;
67892;PMS7003;54688;52.376;16.744;2023-05-10T01:34:53;16;13;
67892;PMS7003;54688;52.376;16.744;2023-05-10T01:37:59;14;12;
67892;PMS7003;54688;52.376;16.744;2023-05-10T01:41:11;12;12;
67892;PMS7003;54688;52.376;16.744;2023-05-10T01:44:17;17;12;
67892;PMS7003;54688;52.376;16.744;2023-05-10T01:47:31;14;11;
67892;PMS7003;54688;52.376;16.744;2023-05-10T01:50:38;15;14;
67892;PMS7003;54688;52.376;16.744;2023-05-10T01:53:42;17;11;
67892;PMS7003;54688;52.376;16.744;2023-05-10T01:56:47;12;11;
67892;PMS7003;54688;52.376;16.744;2023-05-10T01:59:51;18;14;
67892;PMS7003;54688;52.376;16.744;2023-05-10T02:02:55;14;10;
67892;PMS7003;54688;52.376;16.744;2023-05-10T02:05:57;13;12;
67892;PMS7003;54688;52.376;16.744;2023-05-10T02:09:01;13;10;
67892;PMS7003;54688;52.376;16.744;2023-05-10T02:12:05;14;11;
67892;PMS7003;54688;52.376;16.744;2023-05-10T02:15:08;12;10;
67892;PMS7003;54688;52.376;16.744;2023-05-10T02:18:12;15;11;
67892;PMS7003;54688;52.376;16.744;2023-05-10T02:21:16;18;12;
67892;PMS7003;54688;52.376;16.744;2023-05-10T02:24:19;13;12;
67892;PMS7003;54688;52.376;16.744;2023-05-10T02:27:23;14;11;
67892;PMS7003;54688;52.376;16.744;2023-05-10T02:30:26;19;15;
67892;PMS7003;54688;52.376;16.744;2023-05-10T02:33:30;12;10;
67892;PMS7003;54688;52.376;16.744;2023-05-10T02:36:34;15;11;
67892;PMS7003;54688;52.376;16.744;2023-05-10T02:39:37;21;15;
67892;PMS7003;54688;52.376;16.744;2023-05-10T02:42:41;14;14;
67892;PMS7003;54688;52.376;16.744;2023-05-10T02:45:46;18;15;
67892;PMS7003;54688;52.376;16.744;2023-05-10T02:48:49;16;14;
67892;PMS7003;54688;52.376;16.744;2023-05-10T02:51:55;17;16;
67892;PMS7003;54688;52.376;16.744;2023-05-10T02:55:01;18;15;
67892;PMS7003;54688;52.376;16.744;2023-05-10T02:58:04;19;15;
67892;PMS7003;54688;52.376;16.744;2023-05-10T03:01:06;12;12;
67892;PMS7003;54688;52.376;16.744;2023-05-10T03:04:08;17;13;
67892;PMS7003;54688;52.376;16.744;2023-05-10T03:07:11;17;14;
67892;PMS7003;54688;52.376;16.744;2023-05-10T03:10:14;19;18;
67892;PMS7003;54688;52.376;16.744;2023-05-10T03:13:21;15;14;
67892;PMS7003;54688;52.376;16.744;2023-05-10T03:16:33;16;11;
67892;PMS7003;54688;52.376;16.744;2023-05-10T03:19:40;16;14;
67892;PMS7003;54688;52.376;16.744;2023-05-10T03:22:47;17;15;
67892;PMS7003;54688;52.376;16.744;2023-05-10T03:25:52;18;13;
67892;PMS7003;54688;52.376;16.744;2023-05-10T03:28:54;17;15;
67892;PMS7003;54688;52.376;16.744;2023-05-10T03:31:58;20;16;
67892;PMS7003;54688;52.376;16.744;2023-05-10T03:35:00;19;15;
67892;PMS7003;54688;52.376;16.744;2023-05-10T03:38:02;24;17;
67892;PMS7003;54688;52.376;16.744;2023-05-10T03:41:05;19;14;
67892;PMS7003;54688;52.376;16.744;2023-05-10T03:44:07;18;15;
67892;PMS7003;54688;52.376;16.744;2023-05-10T03:47:09;13;12;
67892;PMS7003;54688;52.376;16.744;2023-05-10T03:50:10;16;15;
67892;PMS7003;54688;52.376;16.744;2023-05-10T03:53:12;23;18;
67892;PMS7003;54688;52.376;16.744;2023-05-10T03:56:14;18;17;
67892;PMS7003;54688;52.376;16.744;2023-05-10T03:59:16;16;14;
67892;PMS7003;54688;52.376;16.744;2023-05-10T04:02:18;22;17;
67892;PMS7003;54688;52.376;16.744;2023-05-10T04:05:21;15;14;
67892;PMS7003;54688;52.376;16.744;2023-05-10T04:08:23;18;14;
67892;PMS7003;54688;52.376;16.744;2023-05-10T04:11:25;17;16;
67892;PMS7003;54688;52.376;16.744;2023-05-10T04:14:27;16;15;
67892;PMS7003;54688;52.376;16.744;2023-05-10T04:17:30;22;17;
67892;PMS7003;54688;52.376;16.744;2023-05-10T04:20:32;17;15;
67892;PMS7003;54688;52.376;16.744;2023-05-10T04:23:34;16;16;
67892;PMS7003;54688;52.376;16.744;2023-05-10T04:26:36;17;13;
67892;PMS7003;54688;52.376;16.744;2023-05-10T04:29:38;18;15;
67892;PMS7003;54688;52.376;16.744;2023-05-10T04:32:41;18;17;
67892;PMS7003;54688;52.376;16.744;2023-05-10T04:35:43;23;14;
67892;PMS7003;54688;52.376;16.744;2023-05-10T04:38:45;21;17;
67892;PMS7003;54688;52.376;16.744;2023-05-10T04:41:48;14;12;
67892;PMS7003;54688;52.376;16.744;2023-05-10T04:44:50;19;14;
67892;PMS7003;54688;52.376;16.744;2023-05-10T04:47:52;14;14;
67892;PMS7003;54688;52.376;16.744;2023-05-10T04:50:54;16;14;
67892;PMS7003;54688;52.376;16.744;2023-05-10T04:53:57;17;15;
67892;PMS7003;54688;52.376;16.744;2023-05-10T04:56:59;18;14;
67892;PMS7003;54688;52.376;16.744;2023-05-10T05:00:01;21;18;
67892;PMS7003;54688;52.376;16.744;2023-05-10T05:03:03;12;11;
67892;PMS7003;54688;52.376;16.744;2023-05-10T05:06:05;22;17;
67892;PMS7003;54688;52.376;16.744;2023-05-10T05:09:07;14;13;
67892;PMS7003;54688;52.376;16.744;2023-05-10T05:12:09;15;12;
67892;PMS7003;54688;52.376;16.744;2023-05-10T05:15:12;13;12;
67892;PMS7003;54688;52.376;16.744;2023-05-10T05:18:14;16;13;
67892;PMS7003;54688;52.376;16.744;2023-05-10T05:21:18;15;12;
67892;PMS7003;54688;52.376;16.744;2023-05-10T05:24:20;16;13;
67892;PMS7003;54688;52.376;16.744;2023-05-10T05:27:22;20;13;
67892;PMS7003;54688;52.376;16.744;2023-05-10T05:30:24;17;14;
67892;PMS7003;54688;52.376;16.744;2023-05-10T05:33:26;15;13;
67892;PMS7003;54688;52.376;16.744;2023-05-10T05:36:29;15;13;
67892;PMS7003;54688;52.376;16.744;2023-05-10T05:39:31;19;14;
67892;PMS7003;54688;52.376;16.744;2023-05-10T05:42:33;14;14;
67892;PMS7003;54688;52.376;16.744;2023-05-10T05:45:35;14;12;
67892;PMS7003;54688;52.376;16.744;2023-05-10T05:48:37;16;16;
67892;PMS7003;54688;52.376;16.744;2023-05-10T05:51:39;13;13;
67892;PMS7003;54688;52.376;16.744;2023-05-10T05:54:41;18;15;
67892;PMS7003;54688;52.376;16.744;2023-05-10T05:57:43;15;12;
67892;PMS7003;54688;52.376;16.744;2023-05-10T06:00:45;19;14;
67892;PMS7003;54688;52.376;16.744;2023-05-10T06:03:47;15;13;
67892;PMS7003;54688;52.376;16.744;2023-05-10T06:06:49;20;13;
67892;PMS7003;54688;52.376;16.744;2023-05-10T06:09:52;13;11;
67892;PMS7003;54688;52.376;16.744;2023-05-10T06:12:54;16;12;
67892;PMS7003;54688;52.376;16.744;2023-05-10T06:15:57;14;13;
67892;PMS7003;54688;52.376;16.744;2023-05-10T06:18:58;20;12;
67892;PMS7003;54688;52.376;16.744;2023-05-10T06:22:00;9;9;
67892;PMS7003;54688;52.376;16.744;2023-05-10T06:25:02;8;8;
67892;PMS7003;54688;52.376;16.744;2023-05-10T06:28:05;14;12;
67892;PMS7003;54688;52.376;16.744;2023-05-10T06:31:07;12;12;
67892;PMS7003;54688;52.376;16.744;2023-05-10T06:34:09;15;10;
67892;PMS7003;54688;52.376;16.744;2023-05-10T06:37:11;11;8;
67892;PMS7003;54688;52.376;16.744;2023-05-10T06:40:13;11;9;
67892;PMS7003;54688;52.376;16.744;2023-05-10T06:43:15;13;10;
67892;PMS7003;54688;52.376;16.744;2023-05-10T06:46:17;10;9;
67892;PMS7003;54688;52.376;16.744;2023-05-10T06:49:19;10;9;
67892;PMS7003;54688;52.376;16.744;2023-05-10T06:52:21;11;10;
67892;PMS7003;54688;52.376;16.744;2023-05-10T06:55:23;9;9;
67892;PMS7003;54688;52.376;16.744;2023-05-10T06:58:25;12;9;
67892;PMS7003;54688;52.376;16.744;2023-05-10T07:01:27;11;9;
67892;PMS7003;54688;52.376;16.744;2023-05-10T07:04:30;8;7;
67892;PMS7003;54688;52.376;16.744;2023-05-10T07:07:32;11;8;
67892;PMS7003;54688;52.376;16.744;2023-05-10T07:10:33;8;7;
67892;PMS7003;54688;52.376;16.744;2023-05-10T07:13:36;10;9;
67892;PMS7003;54688;52.376;16.744;2023-05-10T07:16:37;6;6;
67892;PMS7003;54688;52.376;16.744;2023-05-10T07:19:40;8;6;
67892;PMS7003;54688;52.376;16.744;2023-05-10T07:22:42;10;7;
67892;PMS7003;54688;52.376;16.744;2023-05-10T07:25:45;6;6;
67892;PMS7003;54688;52.376;16.744;2023-05-10T07:28:47;13;8;
67892;PMS7003;54688;52.376;16.744;2023-05-10T07:31:49;7;7;
67892;PMS7003;54688;52.376;16.744;2023-05-10T07:34:51;6;5;
67892;PMS7003;54688;52.376;16.744;2023-05-10T07:37:53;10;7;
67892;PMS7003;54688;52.376;16.744;2023-05-10T07:40:54;9;6;
67892;PMS7003;54688;52.376;16.744;2023-05-10T07:43:56;6;6;
67892;PMS7003;54688;52.376;16.744;2023-05-10T07:46:58;8;6;
67892;PMS7003;54688;52.376;16.744;2023-05-10T07:50:00;10;7;
67892;PMS7003;54688;52.376;16.744;2023-05-10T07:53:02;12;7;
67892;PMS7003;54688;52.376;16.744;2023-05-10T07:56:21;6;6;
67892;PMS7003;54688;52.376;16.744;2023-05-10T07:59:22;13;7;
67892;PMS7003;54688;52.376;16.744;2023-05-10T08:02:24;8;8;
67892;PMS7003;54688;52.376;16.744;2023-05-10T08:05:26;6;6;
67892;PMS7003;54688;52.376;16.744;2023-05-10T08:08:28;6;4;
67892;PMS7003;54688;52.376;16.744;2023-05-10T08:11:30;6;6;
67892;PMS7003;54688;52.376;16.744;2023-05-10T08:14:32;9;7;
67892;PMS7003;54688;52.376;16.744;2023-05-10T08:17:33;7;6;
67892;PMS7003;54688;52.376;16.744;2023-05-10T08:20:36;5;5;
67892;PMS7003;54688;52.376;16.744;2023-05-10T08:23:37;8;6;
67892;PMS7003;54688;52.376;16.744;2023-05-10T08:26:39;8;6;
67892;PMS7003;54688;52.376;16.744;2023-05-10T08:29:42;8;6;
67892;PMS7003;54688;52.376;16.744;2023-05-10T08:32:44;8;5;
67892;PMS7003;54688;52.376;16.744;2023-05-10T08:35:46;9;6;
67892;PMS7003;54688;52.376;16.744;2023-05-10T08:38:50;6;5;
67892;PMS7003;54688;52.376;16.744;2023-05-10T08:41:53;7;5;
67892;PMS7003;54688;52.376;16.744;2023-05-10T08:44:59;8;6;
67892;PMS7003;54688;52.376;16.744;2023-05-10T08:48:01;4;3;
67892;PMS7003;54688;52.376;16.744;2023-05-10T08:51:04;6;4;
67892;PMS7003;54688;52.376;16.744;2023-05-10T08:54:06;6;6;
67892;PMS7003;54688;52.376;16.744;2023-05-10T08:57:09;7;4;
67892;PMS7003;54688;52.376;16.744;2023-05-10T09:00:12;2;2;
67892;PMS7003;54688;52.376;16.744;2023-05-10T09:03:15;5;3;
67892;PMS7003;54688;52.376;16.744;2023-05-10T09:06:18;5;3;
67892;PMS7003;54688;52.376;16.744;2023-05-10T09:12:20;6;5;
67892;PMS7003;54688;52.376;16.744;2023-05-10T09:15:22;4;2;
67892;PMS7003;54688;52.376;16.744;2023-05-10T09:18:25;3;3;
67892;PMS7003;54688;52.376;16.744;2023-05-10T09:21:26;3;2;
67892;PMS7003;54688;52.376;16.744;2023-05-10T09:24:29;4;3;
67892;PMS7003;54688;52.376;16.744;2023-05-10T09:27:32;3;2;
67892;PMS7003;54688;52.376;16.744;2023-05-10T09:30:33;3;3;
67892;PMS7003;54688;52.376;16.744;2023-05-10T09:33:43;2;2;
67892;PMS7003;54688;52.376;16.744;2023-05-10T09:36:54;5;2;
67892;PMS7003;54688;52.376;16.744;2023-05-10T09:39:56;2;2;
67892;PMS7003;54688;52.376;16.744;2023-05-10T09:42:59;10;4;
67892;PMS7003;54688;52.376;16.744;2023-05-10T09:46:08;2;2;
67892;PMS7003;54688;52.376;16.744;2023-05-10T09:49:14;4;4;
67892;PMS7003;54688;52.376;16.744;2023-05-10T09:52:16;4;1;
67892;PMS7003;54688;52.376;16.744;2023-05-10T09:55:19;3;2;
67892;PMS7003;54688;52.376;16.744;2023-05-10T09:58:21;2;2;
67892;PMS7003;54688;52.376;16.744;2023-05-10T10:01:25;6;4;
67892;PMS7003;54688;52.376;16.744;2023-05-10T10:04:28;7;7;
67892;PMS7003;54688;52.376;16.744;2023-05-10T10:07:30;3;3;
67892;PMS7003;54688;52.376;16.744;2023-05-10T10:10:33;3;2;
67892;PMS7003;54688;52.376;16.744;2023-05-10T10:13:35;3;2;
67892;PMS7003;54688;52.376;16.744;2023-05-10T10:16:37;4;3;
67892;PMS7003;54688;52.376;16.744;2023-05-10T10:19:39;3;3;
67892;PMS7003;54688;52.376;16.744;2023-05-10T10:22:41;7;4;
67892;PMS7003;54688;52.376;16.744;2023-05-10T10:25:45;2;2;
67892;PMS7003;54688;52.376;16.744;2023-05-10T10:28:51;1;1;
67892;PMS7003;54688;52.376;16.744;2023-05-10T10:31:59;6;3;
67892;PMS7003;54688;52.376;16.744;2023-05-10T10:35:06;4;4;
67892;PMS7003;54688;52.376;16.744;2023-05-10T10:38:08;3;2;
67892;PMS7003;54688;52.376;16.744;2023-05-10T10:41:27;3;2;
67892;PMS7003;54688;52.376;16.744;2023-05-10T10:44:35;3;3;
67892;PMS7003;54688;52.376;16.744;2023-05-10T10:47:37;3;3;
67892;PMS7003;54688;52.376;16.744;2023-05-10T10:50:43;4;3;
67892;PMS7003;54688;52.376;16.744;2023-05-10T10:53:47;3;3;
67892;PMS7003;54688;52.376;16.744;2023-05-10T10:57:10;2;2;
67892;PMS7003;54688;52.376;16.744;2023-05-10T11:00:22;6;3;
67892;PMS7003;54688;52.376;16.744;2023-05-10T11:03:24;3;3;
67892;PMS7003;54688;52.376;16.744;2023-05-10T11:06:30;4;4;
67892;PMS7003;54688;52.376;16.744;2023-05-10T11:09:39;5;3;
67892;PMS7003;54688;52.376;16.744;2023-05-10T11:12:51;4;4;
67892;PMS7003;54688;52.376;16.744;2023-05-10T11:15:53;3;3;
67892;PMS7003;54688;52.376;16.744;2023-05-10T11:18:58;5;4;
67892;PMS7003;54688;52.376;16.744;2023-05-10T11:22:15;5;2;
67892;PMS7003;54688;52.376;16.744;2023-05-10T11:25:18;2;2;
67892;PMS7003;54688;52.376;16.744;2023-05-10T11:28:20;4;3;
67892;PMS7003;54688;52.376;16.744;2023-05-10T11:31:23;4;3;
67892;PMS7003;54688;52.376;16.744;2023-05-10T11:34:26;5;4;
67892;PMS7003;54688;52.376;16.744;2023-05-10T11:37:28;3;1;
67892;PMS7003;54688;52.376;16.744;2023-05-10T11:40:29;2;2;
67892;PMS7003;54688;52.376;16.744;2023-05-10T11:43:31;3;1;
67892;PMS7003;54688;52.376;16.744;2023-05-10T11:46:34;4;4;
67892;PMS7003;54688;52.376;16.744;2023-05-10T11:49:36;6;3;
67892;PMS7003;54688;52.376;16.744;2023-05-10T11:52:38;6;3;
67892;PMS7003;54688;52.376;16.744;2023-05-10T11:55:39;3;2;
67892;PMS7003;54688;52.376;16.744;2023-05-10T11:58:41;6;3;
67892;PMS7003;54688;52.376;16.744;2023-05-10T12:01:43;3;2;
67892;PMS7003;54688;52.376;16.744;2023-05-10T12:04:44;3;3;
67892;PMS7003;54688;52.376;16.744;2023-05-10T12:07:47;4;2;
67892;PMS7003;54688;52.376;16.744;2023-05-10T12:10:49;2;2;
67892;PMS7003;54688;52.376;16.744;2023-05-10T12:13:52;4;4;
67892;PMS7003;54688;52.376;16.744;2023-05-10T12:16:56;6;4;
67892;PMS7003;54688;52.376;16.744;2023-05-10T12:19:59;2;2;
67892;PMS7003;54688;52.376;16.744;2023-05-10T12:23:01;6;3;
67892;PMS7003;54688;52.376;16.744;2023-05-10T12:26:05;5;2;
67892;PMS7003;54688;52.376;16.744;2023-05-10T12:29:15;5;3;
67892;PMS7003;54688;52.376;16.744;2023-05-10T12:32:17;3;1;
67892;PMS7003;54688;52.376;16.744;2023-05-10T12:35:20;4;3;
67892;PMS7003;54688;52.376;16.744;2023-05-10T12:38:26;2;1;
67892;PMS7003;54688;52.376;16.744;2023-05-10T12:41:29;2;1;
67892;PMS7003;54688;52.376;16.744;2023-05-10T12:44:31;2;2;
67892;PMS7003;54688;52.376;16.744;2023-05-10T12:47:34;7;3;
67892;PMS7003;54688;52.376;16.744;2023-05-10T12:50:36;2;1;
67892;PMS7003;54688;52.376;16.744;2023-05-10T12:53:38;4;3;
67892;PMS7003;54688;52.376;16.744;2023-05-10T12:56:40;2;2;
67892;PMS7003;54688;52.376;16.744;2023-05-10T12:59:42;5;3;
67892;PMS7003;54688;52.376;16.744;2023-05-10T13:02:45;3;3;
67892;PMS7003;54688;52.376;16.744;2023-05-10T13:05:47;3;3;
67892;PMS7003;54688;52.376;16.744;2023-05-10T13:08:50;3;3;
67892;PMS7003;54688;52.376;16.744;2023-05-10T13:11:52;6;3;
67892;PMS7003;54688;52.376;16.744;2023-05-10T13:14:54;2;2;
67892;PMS7003;54688;52.376;16.744;2023-05-10T13:17:57;5;3;
67892;PMS7003;54688;52.376;16.744;2023-05-10T13:20:58;3;3;
67892;PMS7003;54688;52.376;16.744;2023-05-10T13:26:59;2;2;
67892;PMS7003;54688;52.376;16.744;2023-05-10T13:30:05;6;4;
67892;PMS7003;54688;52.376;16.744;2023-05-10T13:33:07;3;2;
67892;PMS7003;54688;52.376;16.744;2023-05-10T13:36:10;3;3;
67892;PMS7003;54688;52.376;16.744;2023-05-10T13:39:11;1;1;
67892;PMS7003;54688;52.376;16.744;2023-05-10T13:42:14;4;4;
67892;PMS7003;54688;52.376;16.744;2023-05-10T13:45:16;5;5;
67892;PMS7003;54688;52.376;16.744;2023-05-10T13:48:18;3;3;
67892;PMS7003;54688;52.376;16.744;2023-05-10T13:51:21;2;2;
67892;PMS7003;54688;52.376;16.744;2023-05-10T13:54:23;2;2;
67892;PMS7003;54688;52.376;16.744;2023-05-10T13:57:25;2;1;
67892;PMS7003;54688;52.376;16.744;2023-05-10T14:00:27;4;3;
67892;PMS7003;54688;52.376;16.744;2023-05-10T14:03:29;3;2;
67892;PMS7003;54688;52.376;16.744;2023-05-10T14:06:31;3;3;
67892;PMS7003;54688;52.376;16.744;2023-05-10T14:09:34;4;2;
67892;PMS7003;54688;52.376;16.744;2023-05-10T14:12:37;7;4;
67892;PMS7003;54688;52.376;16.744;2023-05-10T14:15:39;3;3;
67892;PMS7003;54688;52.376;16.744;2023-05-10T14:18:41;3;3;
67892;PMS7003;54688;52.376;16.744;2023-05-10T14:21:42;4;3;
67892;PMS7003;54688;52.376;16.744;2023-05-10T14:24:44;3;3;
67892;PMS7003;54688;52.376;16.744;2023-05-10T14:27:46;4;4;
67892;PMS7003;54688;52.376;16.744;2023-05-10T14:30:49;6;5;
67892;PMS7003;54688;52.376;16.744;2023-05-10T14:33:51;3;3;
67892;PMS7003;54688;52.376;16.744;2023-05-10T14:36:54;2;2;
67892;PMS7003;54688;52.376;16.744;2023-05-10T14:39:56;5;3;
67892;PMS7003;54688;52.376;16.744;2023-05-10T14:42:58;4;4;
67892;PMS7003;54688;52.376;16.744;2023-05-10T14:46:00;3;3;
67892;PMS7003;54688;52.376;16.744;2023-05-10T14:49:02;5;3;
67892;PMS7003;54688;52.376;16.744;2023-05-10T14:52:05;6;5;
67892;PMS7003;54688;52.376;16.744;2023-05-10T14:55:08;4;3;
67892;PMS7003;54688;52.376;16.744;2023-05-10T14:58:10;5;2;
67892;PMS7003;54688;52.376;16.744;2023-05-10T15:01:13;5;3;
67892;PMS7003;54688;52.376;16.744;2023-05-10T15:04:15;3;3;
67892;PMS7003;54688;52.376;16.744;2023-05-10T15:07:17;3;3;
67892;PMS7003;54688;52.376;16.744;2023-05-10T15:10:20;4;3;
67892;PMS7003;54688;52.376;16.744;2023-05-10T15:13:22;2;2;
67892;PMS7003;54688;52.376;16.744;2023-05-10T15:16:24;4;3;
67892;PMS7003;54688;52.376;16.744;2023-05-10T15:19:27;4;3;
67892;PMS7003;54688;52.376;16.744;2023-05-10T15:22:28;3;2;
67892;PMS7003;54688;52.376;16.744;2023-05-10T15:25:31;5;4;
67892;PMS7003;54688;52.376;16.744;2023-05-10T15:28:33;3;2;
67892;PMS7003;54688;52.376;16.744;2023-05-10T15:31:36;3;2;
67892;PMS7003;54688;52.376;16.744;2023-05-10T15:34:38;3;3;
67892;PMS7003;54688;52.376;16.744;2023-05-10T15:37:40;3;3;
67892;PMS7003;54688;52.376;16.744;2023-05-10T15:40:43;4;2;
67892;PMS7003;54688;52.376;16.744;2023-05-10T15:43:45;4;4;
67892;PMS7003;54688;52.376;16.744;2023-05-10T15:49:47;4;4;
67892;PMS7003;54688;52.376;16.744;2023-05-10T15:52:50;5;4;
67892;PMS7003;54688;52.376;16.744;2023-05-10T15:55:52;7;6;
67892;PMS7003;54688;52.376;16.744;2023-05-10T15:58:54;6;5;
67892;PMS7003;54688;52.376;16.744;2023-05-10T16:01:56;3;3;
67892;PMS7003;54688;52.376;16.744;2023-05-10T16:04:59;6;5;
67892;PMS7003;54688;52.376;16.744;2023-05-10T16:08:01;7;5;
67892;PMS7003;54688;52.376;16.744;2023-05-10T16:11:03;3;3;
67892;PMS7003;54688;52.376;16.744;2023-05-10T16:14:05;4;4;
67892;PMS7003;54688;52.376;16.744;2023-05-10T16:17:08;7;4;
67892;PMS7003;54688;52.376;16.744;2023-05-10T16:20:10;4;3;
67892;PMS7003;54688;52.376;16.744;2023-05-10T16:23:13;7;5;
67892;PMS7003;54688;52.376;16.744;2023-05-10T16:26:15;4;4;
67892;PMS7003;54688;52.376;16.744;2023-05-10T16:29:17;8;4;
67892;PMS7003;54688;52.376;16.744;2023-05-10T16:32:19;4;3;
67892;PMS7003;54688;52.376;16.744;2023-05-10T16:35:22;4;4;
67892;PMS7003;54688;52.376;16.744;2023-05-10T16:38:24;4;4;
67892;PMS7003;54688;52.376;16.744;2023-05-10T16:41:26;2;2;
67892;PMS7003;54688;52.376;16.744;2023-05-10T16:44:28;2;2;
67892;PMS7003;54688;52.376;16.744;2023-05-10T16:47:30;3;3;
67892;PMS7003;54688;52.376;16.744;2023-05-10T16:50:32;6;3;
67892;PMS7003;54688;52.376;16.744;2023-05-10T16:53:34;7;7;
67892;PMS7003;54688;52.376;16.744;2023-05-10T16:56:36;7;5;
67892;PMS7003;54688;52.376;16.744;2023-05-10T16:59:38;8;7;
67892;PMS7003;54688;52.376;16.744;2023-05-10T17:02:40;8;6;
67892;PMS7003;54688;52.376;16.744;2023-05-10T17:05:42;7;6;
67892;PMS7003;54688;52.376;16.744;2023-05-10T17:08:44;6;4;
67892;PMS7003;54688;52.376;16.744;2023-05-10T17:11:47;9;5;
67892;PMS7003;54688;52.376;16.744;2023-05-10T17:14:49;12;6;
67892;PMS7003;54688;52.376;16.744;2023-05-10T17:17:51;6;6;
67892;PMS7003;54688;52.376;16.744;2023-05-10T17:20:53;10;10;
67892;PMS7003;54688;52.376;16.744;2023-05-10T17:23:55;7;7;
67892;PMS7003;54688;52.376;16.744;2023-05-10T17:26:57;12;9;
67892;PMS7003;54688;52.376;16.744;2023-05-10T17:29:58;9;9;
67892;PMS7003;54688;52.376;16.744;2023-05-10T17:33:00;6;5;
67892;PMS7003;54688;52.376;16.744;2023-05-10T17:36:03;6;6;
67892;PMS7003;54688;52.376;16.744;2023-05-10T17:39:05;6;5;
67892;PMS7003;54688;52.376;16.744;2023-05-10T17:42:07;6;6;
67892;PMS7003;54688;52.376;16.744;2023-05-10T17:45:10;6;5;
67892;PMS7003;54688;52.376;16.744;2023-05-10T17:48:12;6;5;
67892;PMS7003;54688;52.376;16.744;2023-05-10T17:54:21;7;5;
67892;PMS7003;54688;52.376;16.744;2023-05-10T17:57:23;8;5;
67892;PMS7003;54688;52.376;16.744;2023-05-10T18:00:25;7;6;
67892;PMS7003;54688;52.376;16.744;2023-05-10T18:03:27;7;7;
67892;PMS7003;54688;52.376;16.744;2023-05-10T18:06:29;7;6;
67892;PMS7003;54688;52.376;16.744;2023-05-10T18:09:31;8;5;
67892;PMS7003;54688;52.376;16.744;2023-05-10T18:12:33;8;7;
67892;PMS7003;54688;52.376;16.744;2023-05-10T18:21:34;6;6;
67892;PMS7003;54688;52.376;16.744;2023-05-10T18:24:37;6;5;
67892;PMS7003;54688;52.376;16.744;2023-05-10T18:27:39;6;6;
67892;PMS7003;54688;52.376;16.744;2023-05-10T18:30:42;9;7;
67892;PMS7003;54688;52.376;16.744;2023-05-10T18:33:44;6;6;
67892;PMS7003;54688;52.376;16.744;2023-05-10T18:36:47;8;7;
67892;PMS7003;54688;52.376;16.744;2023-05-10T18:39:49;7;7;
67892;PMS7003;54688;52.376;16.744;2023-05-10T18:42:52;7;6;
67892;PMS7003;54688;52.376;16.744;2023-05-10T18:45:54;7;7;
67892;PMS7003;54688;52.376;16.744;2023-05-10T18:48:56;8;8;
67892;PMS7003;54688;52.376;16.744;2023-05-10T18:51:59;7;6;
67892;PMS7003;54688;52.376;16.744;2023-05-10T18:55:00;13;9;
67892;PMS7003;54688;52.376;16.744;2023-05-10T18:58:02;11;7;
67892;PMS7003;54688;52.376;16.744;2023-05-10T19:01:04;7;6;
67892;PMS7003;54688;52.376;16.744;2023-05-10T19:04:07;9;8;
67892;PMS7003;54688;52.376;16.744;2023-05-10T19:07:09;7;7;
67892;PMS7003;54688;52.376;16.744;2023-05-10T19:10:12;9;7;
67892;PMS7003;54688;52.376;16.744;2023-05-10T19:16:13;9;7;
67892;PMS7003;54688;52.376;16.744;2023-05-10T19:19:14;9;7;
67892;PMS7003;54688;52.376;16.744;2023-05-10T19:22:17;8;7;
67892;PMS7003;54688;52.376;16.744;2023-05-10T19:25:19;5;5;
67892;PMS7003;54688;52.376;16.744;2023-05-10T19:28:22;9;7;
67892;PMS7003;54688;52.376;16.744;2023-05-10T19:31:24;7;7;
67892;PMS7003;54688;52.376;16.744;2023-05-10T19:34:25;6;6;
67892;PMS7003;54688;52.376;16.744;2023-05-10T19:37:27;10;7;
67892;PMS7003;54688;52.376;16.744;2023-05-10T19:40:29;7;7;
67892;PMS7003;54688;52.376;16.744;2023-05-10T19:43:32;5;5;
67892;PMS7003;54688;52.376;16.744;2023-05-10T19:46:34;6;6;
67892;PMS7003;54688;52.376;16.744;2023-05-10T19:49:36;9;7;
67892;PMS7003;54688;52.376;16.744;2023-05-10T19:52:38;9;7;
67892;PMS7003;54688;52.376;16.744;2023-05-10T19:55:40;7;6;
67892;PMS7003;54688;52.376;16.744;2023-05-10T19:58:43;4;4;
67892;PMS7003;54688;52.376;16.744;2023-05-10T20:01:44;9;7;
67892;PMS7003;54688;52.376;16.744;2023-05-10T20:04:46;5;5;
67892;PMS7003;54688;52.376;16.744;2023-05-10T20:07:48;6;5;
67892;PMS7003;54688;52.376;16.744;2023-05-10T20:10:50;8;7;
67892;PMS7003;54688;52.376;16.744;2023-05-10T20:13:52;8;5;
67892;PMS7003;54688;52.376;16.744;2023-05-10T20:16:54;9;6;
67892;PMS7003;54688;52.376;16.744;2023-05-10T20:19:55;7;7;
67892;PMS7003;54688;52.376;16.744;2023-05-10T20:22:57;10;6;
67892;PMS7003;54688;52.376;16.744;2023-05-10T20:25:59;8;7;
67892;PMS7003;54688;52.376;16.744;2023-05-10T20:29:01;6;5;
67892;PMS7003;54688;52.376;16.744;2023-05-10T20:32:04;7;7;
67892;PMS7003;54688;52.376;16.744;2023-05-10T20:35:07;8;7;
67892;PMS7003;54688;52.376;16.744;2023-05-10T20:38:09;8;7;
67892;PMS7003;54688;52.376;16.744;2023-05-10T20:41:11;8;5;
67892;PMS7003;54688;52.376;16.744;2023-05-10T20:44:13;8;8;
67892;PMS7003;54688;52.376;16.744;2023-05-10T20:47:16;6;6;